sensor_id;sensor_type;location;lat;lon;timestamp;temperature;humidity
54485;DHT22;45006;56.958;24.166;2023-04-29T00:01:32;21.60;79.20
54485;DHT22;45006;56.958;24.166;2023-04-29T00:03:59;21.60;79.60
54485;DHT22;45006;56.958;24.166;2023-04-29T00:06:26;21.60;79.50
54485;DHT22;45006;56.958;24.166;2023-04-29T00:08:54;21.60;79.50
54485;DHT22;45006;56.958;24.166;2023-04-29T00:11:21;21.60;79.50
54485;DHT22;45006;56.958;24.166;2023-04-29T00:13:48;21.60;80.30
54485;DHT22;45006;56.958;24.166;2023-04-29T00:16:15;21.60;80.30
54485;DHT22;45006;56.958;24.166;2023-04-29T00:18:44;21.60;80.50
54485;DHT22;45006;56.958;24.166;2023-04-29T00:21:12;21.50;80.50
54485;DHT22;45006;56.958;24.166;2023-04-29T00:23:39;21.50;80.40
54485;DHT22;45006;56.958;24.166;2023-04-29T00:26:06;21.50;80.30
54485;DHT22;45006;56.958;24.166;2023-04-29T00:28:33;21.50;80.10
54485;DHT22;45006;56.958;24.166;2023-04-29T00:31:00;21.60;79.80
54485;DHT22;45006;56.958;24.166;2023-04-29T00:33:28;21.50;79.60
54485;DHT22;45006;56.958;24.166;2023-04-29T00:35:55;21.60;80.10
54485;DHT22;45006;56.958;24.166;2023-04-29T00:38:22;21.50;80.30
54485;DHT22;45006;56.958;24.166;2023-04-29T00:40:49;21.50;79.90
54485;DHT22;45006;56.958;24.166;2023-04-29T00:43:16;21.50;80.30
54485;DHT22;45006;56.958;24.166;2023-04-29T00:45:43;21.60;79.80
54485;DHT22;45006;56.958;24.166;2023-04-29T00:48:11;21.50;79.70
54485;DHT22;45006;56.958;24.166;2023-04-29T00:50:40;21.60;80.30
54485;DHT22;45006;56.958;24.166;2023-04-29T00:53:09;21.60;79.40
54485;DHT22;45006;56.958;24.166;2023-04-29T00:55:39;21.50;79.30
54485;DHT22;45006;56.958;24.166;2023-04-29T00:58:07;21.60;79.30
54485;DHT22;45006;56.958;24.166;2023-04-29T01:00:35;21.50;79.20
54485;DHT22;45006;56.958;24.166;2023-04-29T01:03:04;21.50;79.20
54485;DHT22;45006;56.958;24.166;2023-04-29T01:05:31;21.50;79.20
54485;DHT22;45006;56.958;24.166;2023-04-29T01:10:43;21.60;79.20
54485;DHT22;45006;56.958;24.166;2023-04-29T01:13:16;21.50;78.90
54485;DHT22;45006;56.958;24.166;2023-04-29T01:15:48;21.50;79.00
54485;DHT22;45006;56.958;24.166;2023-04-29T01:18:24;21.50;79.00
54485;DHT22;45006;56.958;24.166;2023-04-29T01:20:52;21.50;79.10
54485;DHT22;45006;56.958;24.166;2023-04-29T01:23:24;21.50;79.30
54485;DHT22;45006;56.958;24.166;2023-04-29T01:25:51;21.50;79.00
54485;DHT22;45006;56.958;24.166;2023-04-29T01:34:15;21.50;79.60
54485;DHT22;45006;56.958;24.166;2023-04-29T01:40:11;21.50;79.40
54485;DHT22;45006;56.958;24.166;2023-04-29T01:43:11;21.50;79.30
54485;DHT22;45006;56.958;24.166;2023-04-29T01:45:39;21.50;79.20
54485;DHT22;45006;56.958;24.166;2023-04-29T01:48:08;21.50;78.70
54485;DHT22;45006;56.958;24.166;2023-04-29T01:50:35;21.50;78.80
54485;DHT22;45006;56.958;24.166;2023-04-29T01:53:02;21.50;78.70
54485;DHT22;45006;56.958;24.166;2023-04-29T01:55:29;21.50;78.70
54485;DHT22;45006;56.958;24.166;2023-04-29T01:57:56;21.50;78.60
54485;DHT22;45006;56.958;24.166;2023-04-29T02:00:24;21.50;78.50
54485;DHT22;45006;56.958;24.166;2023-04-29T02:02:50;21.50;78.40
54485;DHT22;45006;56.958;24.166;2023-04-29T02:05:17;21.50;78.50
54485;DHT22;45006;56.958;24.166;2023-04-29T02:07:44;21.40;78.40
54485;DHT22;45006;56.958;24.166;2023-04-29T02:10:13;21.40;78.70
54485;DHT22;45006;56.958;24.166;2023-04-29T02:12:40;21.50;78.90
54485;DHT22;45006;56.958;24.166;2023-04-29T02:15:07;21.50;78.90
54485;DHT22;45006;56.958;24.166;2023-04-29T02:17:34;21.40;78.90
54485;DHT22;45006;56.958;24.166;2023-04-29T02:20:01;21.50;79.10
54485;DHT22;45006;56.958;24.166;2023-04-29T02:22:28;21.50;79.00
54485;DHT22;45006;56.958;24.166;2023-04-29T02:24:55;21.50;78.80
54485;DHT22;45006;56.958;24.166;2023-04-29T02:27:23;21.40;79.20
54485;DHT22;45006;56.958;24.166;2023-04-29T02:29:52;21.40;79.20
54485;DHT22;45006;56.958;24.166;2023-04-29T02:32:19;21.50;78.70
54485;DHT22;45006;56.958;24.166;2023-04-29T02:34:46;21.40;78.90
54485;DHT22;45006;56.958;24.166;2023-04-29T02:37:13;21.50;78.90
54485;DHT22;45006;56.958;24.166;2023-04-29T02:39:41;21.40;79.00
54485;DHT22;45006;56.958;24.166;2023-04-29T02:42:08;21.40;79.10
54485;DHT22;45006;56.958;24.166;2023-04-29T02:44:35;21.40;79.20
54485;DHT22;45006;56.958;24.166;2023-04-29T02:47:02;21.50;79.20
54485;DHT22;45006;56.958;24.166;2023-04-29T02:49:29;21.50;79.30
54485;DHT22;45006;56.958;24.166;2023-04-29T02:51:56;21.40;79.50
54485;DHT22;45006;56.958;24.166;2023-04-29T02:54:24;21.40;79.10
54485;DHT22;45006;56.958;24.166;2023-04-29T02:56:51;21.40;79.00
54485;DHT22;45006;56.958;24.166;2023-04-29T02:59:18;21.40;79.20
54485;DHT22;45006;56.958;24.166;2023-04-29T03:01:45;21.40;79.40
54485;DHT22;45006;56.958;24.166;2023-04-29T03:04:13;21.40;79.30
54485;DHT22;45006;56.958;24.166;2023-04-29T03:06:40;21.40;79.30
54485;DHT22;45006;56.958;24.166;2023-04-29T03:09:07;21.40;79.30
54485;DHT22;45006;56.958;24.166;2023-04-29T03:11:34;21.40;79.60
54485;DHT22;45006;56.958;24.166;2023-04-29T03:14:01;21.40;79.20
54485;DHT22;45006;56.958;24.166;2023-04-29T03:16:28;21.40;79.10
54485;DHT22;45006;56.958;24.166;2023-04-29T03:18:56;21.40;79.30
54485;DHT22;45006;56.958;24.166;2023-04-29T03:21:24;21.40;79.00
54485;DHT22;45006;56.958;24.166;2023-04-29T03:23:53;21.40;79.20
54485;DHT22;45006;56.958;24.166;2023-04-29T03:26:20;21.40;79.40
54485;DHT22;45006;56.958;24.166;2023-04-29T03:28:50;21.40;79.40
54485;DHT22;45006;56.958;24.166;2023-04-29T03:31:17;21.40;79.40
54485;DHT22;45006;56.958;24.166;2023-04-29T03:33:46;21.40;78.70
54485;DHT22;45006;56.958;24.166;2023-04-29T03:36:15;21.40;79.00
54485;DHT22;45006;56.958;24.166;2023-04-29T03:38:42;21.40;79.00
54485;DHT22;45006;56.958;24.166;2023-04-29T03:41:09;21.40;78.70
54485;DHT22;45006;56.958;24.166;2023-04-29T03:43:36;21.40;79.00
54485;DHT22;45006;56.958;24.166;2023-04-29T03:46:04;21.40;79.00
54485;DHT22;45006;56.958;24.166;2023-04-29T03:48:31;21.40;79.20
54485;DHT22;45006;56.958;24.166;2023-04-29T03:50:58;21.40;79.00
54485;DHT22;45006;56.958;24.166;2023-04-29T03:53:26;21.40;79.10
54485;DHT22;45006;56.958;24.166;2023-04-29T03:55:53;21.40;78.90
54485;DHT22;45006;56.958;24.166;2023-04-29T03:58:20;21.40;78.70
54485;DHT22;45006;56.958;24.166;2023-04-29T04:00:47;21.40;78.80
54485;DHT22;45006;56.958;24.166;2023-04-29T04:03:14;21.40;78.60
54485;DHT22;45006;56.958;24.166;2023-04-29T04:05:41;21.40;78.80
54485;DHT22;45006;56.958;24.166;2023-04-29T04:08:08;21.40;78.90
54485;DHT22;45006;56.958;24.166;2023-04-29T04:10:36;21.40;79.00
54485;DHT22;45006;56.958;24.166;2023-04-29T04:13:03;21.50;79.00
54485;DHT22;45006;56.958;24.166;2023-04-29T04:15:30;21.40;79.10
54485;DHT22;45006;56.958;24.166;2023-04-29T04:17:57;21.40;79.00
54485;DHT22;45006;56.958;24.166;2023-04-29T04:20:24;21.40;79.10
54485;DHT22;45006;56.958;24.166;2023-04-29T04:22:51;21.40;79.20
54485;DHT22;45006;56.958;24.166;2023-04-29T04:25:20;21.40;79.20
54485;DHT22;45006;56.958;24.166;2023-04-29T04:27:47;21.40;79.40
54485;DHT22;45006;56.958;24.166;2023-04-29T04:30:14;21.40;79.40
54485;DHT22;45006;56.958;24.166;2023-04-29T04:32:41;21.50;79.70
54485;DHT22;45006;56.958;24.166;2023-04-29T04:35:08;21.50;79.80
54485;DHT22;45006;56.958;24.166;2023-04-29T04:37:35;21.50;79.80
54485;DHT22;45006;56.958;24.166;2023-04-29T04:40:02;21.50;79.80
54485;DHT22;45006;56.958;24.166;2023-04-29T04:42:29;21.60;80.50
54485;DHT22;45006;56.958;24.166;2023-04-29T04:44:56;21.50;79.90
54485;DHT22;45006;56.958;24.166;2023-04-29T04:47:23;21.50;80.00
54485;DHT22;45006;56.958;24.166;2023-04-29T04:49:50;21.60;80.10
54485;DHT22;45006;56.958;24.166;2023-04-29T04:52:19;21.60;80.20
54485;DHT22;45006;56.958;24.166;2023-04-29T04:54:47;21.60;80.10
54485;DHT22;45006;56.958;24.166;2023-04-29T04:57:14;21.70;80.00
54485;DHT22;45006;56.958;24.166;2023-04-29T04:59:42;21.70;80.10
54485;DHT22;45006;56.958;24.166;2023-04-29T05:02:09;21.70;80.10
54485;DHT22;45006;56.958;24.166;2023-04-29T05:04:36;21.70;80.40
54485;DHT22;45006;56.958;24.166;2023-04-29T05:07:03;21.80;80.50
54485;DHT22;45006;56.958;24.166;2023-04-29T05:09:30;21.80;80.60
54485;DHT22;45006;56.958;24.166;2023-04-29T05:11:57;21.90;80.80
54485;DHT22;45006;56.958;24.166;2023-04-29T05:14:25;22.00;81.00
54485;DHT22;45006;56.958;24.166;2023-04-29T05:16:52;22.00;80.70
54485;DHT22;45006;56.958;24.166;2023-04-29T05:19:19;22.10;80.60
54485;DHT22;45006;56.958;24.166;2023-04-29T05:21:47;22.10;80.70
54485;DHT22;45006;56.958;24.166;2023-04-29T05:24:14;22.20;80.50
54485;DHT22;45006;56.958;24.166;2023-04-29T05:26:41;22.20;80.40
54485;DHT22;45006;56.958;24.166;2023-04-29T05:29:10;22.30;80.10
54485;DHT22;45006;56.958;24.166;2023-04-29T05:31:37;22.30;80.10
54485;DHT22;45006;56.958;24.166;2023-04-29T05:34:04;22.30;80.10
54485;DHT22;45006;56.958;24.166;2023-04-29T05:36:31;22.40;80.00
54485;DHT22;45006;56.958;24.166;2023-04-29T05:38:58;22.40;79.90
54485;DHT22;45006;56.958;24.166;2023-04-29T05:41:25;22.50;79.90
54485;DHT22;45006;56.958;24.166;2023-04-29T05:43:52;22.50;79.80
54485;DHT22;45006;56.958;24.166;2023-04-29T05:46:19;22.50;79.80
54485;DHT22;45006;56.958;24.166;2023-04-29T05:48:48;22.50;79.80
54485;DHT22;45006;56.958;24.166;2023-04-29T05:51:16;22.60;79.70
54485;DHT22;45006;56.958;24.166;2023-04-29T05:53:44;22.50;74.00
54485;DHT22;45006;56.958;24.166;2023-04-29T05:56:11;22.50;73.20
54485;DHT22;45006;56.958;24.166;2023-04-29T05:58:38;22.50;74.80
54485;DHT22;45006;56.958;24.166;2023-04-29T06:01:05;22.50;73.70
54485;DHT22;45006;56.958;24.166;2023-04-29T06:03:33;22.50;73.60
54485;DHT22;45006;56.958;24.166;2023-04-29T06:06:00;22.50;73.30
54485;DHT22;45006;56.958;24.166;2023-04-29T06:08:29;22.50;73.20
54485;DHT22;45006;56.958;24.166;2023-04-29T06:10:56;22.50;73.90
54485;DHT22;45006;56.958;24.166;2023-04-29T06:13:24;22.50;73.70
54485;DHT22;45006;56.958;24.166;2023-04-29T06:15:54;22.60;73.70
54485;DHT22;45006;56.958;24.166;2023-04-29T06:18:23;22.60;74.20
54485;DHT22;45006;56.958;24.166;2023-04-29T06:20:51;22.60;74.40
54485;DHT22;45006;56.958;24.166;2023-04-29T06:23:19;22.60;74.30
54485;DHT22;45006;56.958;24.166;2023-04-29T06:25:46;22.60;74.20
54485;DHT22;45006;56.958;24.166;2023-04-29T06:28:13;22.50;74.40
54485;DHT22;45006;56.958;24.166;2023-04-29T06:30:41;22.50;74.40
54485;DHT22;45006;56.958;24.166;2023-04-29T06:33:08;22.60;74.40
54485;DHT22;45006;56.958;24.166;2023-04-29T06:35:38;22.50;74.30
54485;DHT22;45006;56.958;24.166;2023-04-29T06:38:06;22.60;74.60
54485;DHT22;45006;56.958;24.166;2023-04-29T06:40:36;22.50;73.60
54485;DHT22;45006;56.958;24.166;2023-04-29T06:43:03;22.50;73.80
54485;DHT22;45006;56.958;24.166;2023-04-29T06:45:31;22.50;73.10
54485;DHT22;45006;56.958;24.166;2023-04-29T06:47:59;22.50;72.90
54485;DHT22;45006;56.958;24.166;2023-04-29T06:50:26;22.50;72.60
54485;DHT22;45006;56.958;24.166;2023-04-29T06:52:53;22.50;72.00
54485;DHT22;45006;56.958;24.166;2023-04-29T06:55:22;22.50;71.70
54485;DHT22;45006;56.958;24.166;2023-04-29T06:57:49;22.50;72.00
54485;DHT22;45006;56.958;24.166;2023-04-29T07:00:16;22.40;71.90
54485;DHT22;45006;56.958;24.166;2023-04-29T07:02:45;22.40;71.70
54485;DHT22;45006;56.958;24.166;2023-04-29T07:05:12;22.40;71.50
54485;DHT22;45006;56.958;24.166;2023-04-29T07:07:39;22.40;71.50
54485;DHT22;45006;56.958;24.166;2023-04-29T07:10:06;22.40;71.20
54485;DHT22;45006;56.958;24.166;2023-04-29T07:12:33;22.30;71.00
54485;DHT22;45006;56.958;24.166;2023-04-29T07:15:00;22.30;70.90
54485;DHT22;45006;56.958;24.166;2023-04-29T07:17:31;22.30;70.80
54485;DHT22;45006;56.958;24.166;2023-04-29T07:19:59;22.30;70.50
54485;DHT22;45006;56.958;24.166;2023-04-29T07:22:27;22.30;70.60
54485;DHT22;45006;56.958;24.166;2023-04-29T07:24:54;22.30;70.60
54485;DHT22;45006;56.958;24.166;2023-04-29T07:27:22;22.30;70.70
54485;DHT22;45006;56.958;24.166;2023-04-29T07:29:50;22.30;70.80
54485;DHT22;45006;56.958;24.166;2023-04-29T07:32:17;22.30;71.50
54485;DHT22;45006;56.958;24.166;2023-04-29T07:34:44;22.30;71.00
54485;DHT22;45006;56.958;24.166;2023-04-29T07:37:12;22.30;70.90
54485;DHT22;45006;56.958;24.166;2023-04-29T07:39:39;22.30;71.00
54485;DHT22;45006;56.958;24.166;2023-04-29T07:42:08;22.30;70.90
54485;DHT22;45006;56.958;24.166;2023-04-29T07:44:35;22.30;71.00
54485;DHT22;45006;56.958;24.166;2023-04-29T07:47:02;22.30;70.90
54485;DHT22;45006;56.958;24.166;2023-04-29T07:49:29;22.20;71.00
54485;DHT22;45006;56.958;24.166;2023-04-29T07:51:57;22.20;71.10
54485;DHT22;45006;56.958;24.166;2023-04-29T07:54:25;22.20;71.00
54485;DHT22;45006;56.958;24.166;2023-04-29T07:56:53;22.20;71.70
54485;DHT22;45006;56.958;24.166;2023-04-29T07:59:20;22.20;70.90
54485;DHT22;45006;56.958;24.166;2023-04-29T08:01:48;22.20;70.90
54485;DHT22;45006;56.958;24.166;2023-04-29T08:04:16;22.20;70.90
54485;DHT22;45006;56.958;24.166;2023-04-29T08:06:44;22.20;70.90
54485;DHT22;45006;56.958;24.166;2023-04-29T08:09:11;22.20;70.90
54485;DHT22;45006;56.958;24.166;2023-04-29T08:11:38;22.20;71.00
54485;DHT22;45006;56.958;24.166;2023-04-29T08:14:07;22.20;70.70
54485;DHT22;45006;56.958;24.166;2023-04-29T08:16:34;22.20;71.10
54485;DHT22;45006;56.958;24.166;2023-04-29T08:19:01;22.20;71.20
54485;DHT22;45006;56.958;24.166;2023-04-29T08:21:28;22.20;70.80
54485;DHT22;45006;56.958;24.166;2023-04-29T08:23:57;22.20;70.70
54485;DHT22;45006;56.958;24.166;2023-04-29T08:26:26;22.20;70.90
54485;DHT22;45006;56.958;24.166;2023-04-29T08:28:53;22.20;71.20
54485;DHT22;45006;56.958;24.166;2023-04-29T08:31:21;22.20;71.10
54485;DHT22;45006;56.958;24.166;2023-04-29T08:33:48;22.20;71.20
54485;DHT22;45006;56.958;24.166;2023-04-29T08:36:15;22.20;71.40
54485;DHT22;45006;56.958;24.166;2023-04-29T08:38:42;22.20;71.60
54485;DHT22;45006;56.958;24.166;2023-04-29T08:41:09;22.20;71.80
54485;DHT22;45006;56.958;24.166;2023-04-29T08:43:38;22.20;71.90
54485;DHT22;45006;56.958;24.166;2023-04-29T08:46:06;22.20;72.10
54485;DHT22;45006;56.958;24.166;2023-04-29T08:48:35;22.20;72.20
54485;DHT22;45006;56.958;24.166;2023-04-29T08:51:03;22.20;72.30
54485;DHT22;45006;56.958;24.166;2023-04-29T08:53:30;22.20;73.00
54485;DHT22;45006;56.958;24.166;2023-04-29T08:56:03;22.20;72.40
54485;DHT22;45006;56.958;24.166;2023-04-29T08:58:35;22.20;72.50
54485;DHT22;45006;56.958;24.166;2023-04-29T09:01:07;22.20;72.60
54485;DHT22;45006;56.958;24.166;2023-04-29T09:03:55;22.20;72.70
54485;DHT22;45006;56.958;24.166;2023-04-29T09:06:23;22.10;72.80
54485;DHT22;45006;56.958;24.166;2023-04-29T09:08:50;22.20;72.90
54485;DHT22;45006;56.958;24.166;2023-04-29T09:11:18;22.10;72.90
54485;DHT22;45006;56.958;24.166;2023-04-29T09:13:46;22.10;72.90
54485;DHT22;45006;56.958;24.166;2023-04-29T09:16:13;22.10;73.10
54485;DHT22;45006;56.958;24.166;2023-04-29T09:18:48;22.10;73.20
54485;DHT22;45006;56.958;24.166;2023-04-29T09:21:28;22.10;73.00
54485;DHT22;45006;56.958;24.166;2023-04-29T09:24:03;22.10;73.00
54485;DHT22;45006;56.958;24.166;2023-04-29T09:26:41;22.10;73.20
54485;DHT22;45006;56.958;24.166;2023-04-29T09:29:12;22.10;73.20
54485;DHT22;45006;56.958;24.166;2023-04-29T09:31:41;22.10;73.20
54485;DHT22;45006;56.958;24.166;2023-04-29T09:34:10;22.10;73.10
54485;DHT22;45006;56.958;24.166;2023-04-29T09:39:17;22.10;73.30
54485;DHT22;45006;56.958;24.166;2023-04-29T09:44:29;22.10;73.40
54485;DHT22;45006;56.958;24.166;2023-04-29T09:47:04;22.10;73.50
54485;DHT22;45006;56.958;24.166;2023-04-29T09:49:42;22.10;73.50
54485;DHT22;45006;56.958;24.166;2023-04-29T09:52:12;22.10;73.60
54485;DHT22;45006;56.958;24.166;2023-04-29T09:54:41;22.10;73.80
54485;DHT22;45006;56.958;24.166;2023-04-29T09:57:10;22.10;73.80
54485;DHT22;45006;56.958;24.166;2023-04-29T09:59:39;22.10;73.80
54485;DHT22;45006;56.958;24.166;2023-04-29T10:02:15;22.10;73.70
54485;DHT22;45006;56.958;24.166;2023-04-29T10:04:45;22.10;73.80
54485;DHT22;45006;56.958;24.166;2023-04-29T10:07:15;22.10;73.70
54485;DHT22;45006;56.958;24.166;2023-04-29T10:09:47;22.10;73.70
54485;DHT22;45006;56.958;24.166;2023-04-29T10:12:17;22.10;73.70
54485;DHT22;45006;56.958;24.166;2023-04-29T10:14:52;22.10;73.80
54485;DHT22;45006;56.958;24.166;2023-04-29T10:17:28;22.10;73.70
54485;DHT22;45006;56.958;24.166;2023-04-29T10:20:05;22.00;73.80
54485;DHT22;45006;56.958;24.166;2023-04-29T10:25:06;22.10;74.00
54485;DHT22;45006;56.958;24.166;2023-04-29T10:27:36;22.10;74.00
54485;DHT22;45006;56.958;24.166;2023-04-29T10:30:05;22.10;73.80
54485;DHT22;45006;56.958;24.166;2023-04-29T10:32:33;22.10;73.50
54485;DHT22;45006;56.958;24.166;2023-04-29T10:35:17;22.10;73.70
54485;DHT22;45006;56.958;24.166;2023-04-29T10:37:52;22.00;73.70
54485;DHT22;45006;56.958;24.166;2023-04-29T10:40:35;22.10;73.70
54485;DHT22;45006;56.958;24.166;2023-04-29T10:43:05;22.00;73.50
54485;DHT22;45006;56.958;24.166;2023-04-29T10:45:33;22.00;73.20
54485;DHT22;45006;56.958;24.166;2023-04-29T10:53:16;22.00;72.30
54485;DHT22;45006;56.958;24.166;2023-04-29T10:55:47;22.00;72.20
54485;DHT22;45006;56.958;24.166;2023-04-29T11:00:59;22.00;72.00
54485;DHT22;45006;56.958;24.166;2023-04-29T11:03:53;22.00;71.70
54485;DHT22;45006;56.958;24.166;2023-04-29T11:06:44;22.00;71.70
54485;DHT22;45006;56.958;24.166;2023-04-29T11:09:41;22.00;71.60
54485;DHT22;45006;56.958;24.166;2023-04-29T11:12:09;22.00;71.80
54485;DHT22;45006;56.958;24.166;2023-04-29T11:17:11;22.00;71.90
54485;DHT22;45006;56.958;24.166;2023-04-29T11:19:44;22.00;72.00
54485;DHT22;45006;56.958;24.166;2023-04-29T11:27:19;22.00;72.30
54485;DHT22;45006;56.958;24.166;2023-04-29T11:29:49;22.00;72.40
54485;DHT22;45006;56.958;24.166;2023-04-29T11:32:20;22.00;72.50
54485;DHT22;45006;56.958;24.166;2023-04-29T11:34:49;22.00;72.60
54485;DHT22;45006;56.958;24.166;2023-04-29T11:37:24;22.00;72.70
54485;DHT22;45006;56.958;24.166;2023-04-29T11:40:01;22.00;72.80
54485;DHT22;45006;56.958;24.166;2023-04-29T11:42:28;22.00;72.90
54485;DHT22;45006;56.958;24.166;2023-04-29T11:44:55;22.00;72.90
54485;DHT22;45006;56.958;24.166;2023-04-29T11:47:27;22.00;73.00
54485;DHT22;45006;56.958;24.166;2023-04-29T11:50:21;22.00;73.10
54485;DHT22;45006;56.958;24.166;2023-04-29T11:52:48;22.00;73.10
54485;DHT22;45006;56.958;24.166;2023-04-29T11:55:16;22.00;73.20
54485;DHT22;45006;56.958;24.166;2023-04-29T11:57:43;22.00;73.20
54485;DHT22;45006;56.958;24.166;2023-04-29T12:00:13;22.00;73.30
54485;DHT22;45006;56.958;24.166;2023-04-29T12:02:44;22.00;73.30
54485;DHT22;45006;56.958;24.166;2023-04-29T12:05:14;22.00;73.40
54485;DHT22;45006;56.958;24.166;2023-04-29T12:07:48;22.00;73.60
54485;DHT22;45006;56.958;24.166;2023-04-29T12:10:16;22.00;73.80
54485;DHT22;45006;56.958;24.166;2023-04-29T12:12:44;22.00;73.60
54485;DHT22;45006;56.958;24.166;2023-04-29T12:15:12;22.00;73.60
54485;DHT22;45006;56.958;24.166;2023-04-29T12:17:40;22.00;73.70
54485;DHT22;45006;56.958;24.166;2023-04-29T12:20:08;22.00;74.50
54485;DHT22;45006;56.958;24.166;2023-04-29T12:22:36;22.00;73.30
54485;DHT22;45006;56.958;24.166;2023-04-29T12:25:04;22.10;71.20
54485;DHT22;45006;56.958;24.166;2023-04-29T12:27:32;22.20;70.90
54485;DHT22;45006;56.958;24.166;2023-04-29T12:30:00;22.10;70.90
54485;DHT22;45006;56.958;24.166;2023-04-29T12:32:28;22.10;71.40
54485;DHT22;45006;56.958;24.166;2023-04-29T12:34:55;22.10;72.00
54485;DHT22;45006;56.958;24.166;2023-04-29T12:37:22;22.10;72.30
54485;DHT22;45006;56.958;24.166;2023-04-29T12:39:49;22.10;72.50
54485;DHT22;45006;56.958;24.166;2023-04-29T12:42:17;22.10;72.70
54485;DHT22;45006;56.958;24.166;2023-04-29T12:44:45;22.10;72.80
54485;DHT22;45006;56.958;24.166;2023-04-29T12:47:16;22.00;72.90
54485;DHT22;45006;56.958;24.166;2023-04-29T12:49:45;22.10;73.10
54485;DHT22;45006;56.958;24.166;2023-04-29T12:52:12;22.00;73.10
54485;DHT22;45006;56.958;24.166;2023-04-29T12:54:41;22.10;73.10
54485;DHT22;45006;56.958;24.166;2023-04-29T12:57:10;22.00;73.10
54485;DHT22;45006;56.958;24.166;2023-04-29T12:59:38;22.00;73.20
54485;DHT22;45006;56.958;24.166;2023-04-29T13:02:07;22.00;73.20
54485;DHT22;45006;56.958;24.166;2023-04-29T13:04:34;22.00;73.30
54485;DHT22;45006;56.958;24.166;2023-04-29T13:07:01;22.00;73.30
54485;DHT22;45006;56.958;24.166;2023-04-29T13:09:30;22.00;73.40
54485;DHT22;45006;56.958;24.166;2023-04-29T13:11:57;22.00;73.40
54485;DHT22;45006;56.958;24.166;2023-04-29T13:14:25;22.00;73.40
54485;DHT22;45006;56.958;24.166;2023-04-29T13:16:55;22.00;73.40
54485;DHT22;45006;56.958;24.166;2023-04-29T13:19:23;22.00;73.40
54485;DHT22;45006;56.958;24.166;2023-04-29T13:22:10;22.00;73.40
54485;DHT22;45006;56.958;24.166;2023-04-29T13:24:38;22.00;73.50
54485;DHT22;45006;56.958;24.166;2023-04-29T13:27:05;22.00;72.90
54485;DHT22;45006;56.958;24.166;2023-04-29T13:29:32;22.00;71.10
54485;DHT22;45006;56.958;24.166;2023-04-29T13:32:00;22.10;71.50
54485;DHT22;45006;56.958;24.166;2023-04-29T13:34:28;22.00;71.60
54485;DHT22;45006;56.958;24.166;2023-04-29T13:36:54;22.00;71.80
54485;DHT22;45006;56.958;24.166;2023-04-29T13:39:21;22.00;72.00
54485;DHT22;45006;56.958;24.166;2023-04-29T13:41:50;22.00;72.20
54485;DHT22;45006;56.958;24.166;2023-04-29T13:44:17;22.00;73.00
54485;DHT22;45006;56.958;24.166;2023-04-29T13:46:58;22.00;72.50
54485;DHT22;45006;56.958;24.166;2023-04-29T13:49:27;22.00;72.60
54485;DHT22;45006;56.958;24.166;2023-04-29T13:52:14;22.00;72.70
54485;DHT22;45006;56.958;24.166;2023-04-29T13:54:44;22.00;72.80
54485;DHT22;45006;56.958;24.166;2023-04-29T13:57:14;22.00;72.90
54485;DHT22;45006;56.958;24.166;2023-04-29T14:00:02;22.00;72.90
54485;DHT22;45006;56.958;24.166;2023-04-29T14:02:49;22.00;73.00
54485;DHT22;45006;56.958;24.166;2023-04-29T14:05:20;22.00;73.00
54485;DHT22;45006;56.958;24.166;2023-04-29T14:07:47;22.00;73.00
54485;DHT22;45006;56.958;24.166;2023-04-29T14:10:15;22.00;73.00
54485;DHT22;45006;56.958;24.166;2023-04-29T14:12:41;21.90;73.00
54485;DHT22;45006;56.958;24.166;2023-04-29T14:15:09;22.00;73.10
54485;DHT22;45006;56.958;24.166;2023-04-29T14:17:36;21.90;73.10
54485;DHT22;45006;56.958;24.166;2023-04-29T14:20:10;21.90;73.10
54485;DHT22;45006;56.958;24.166;2023-04-29T14:22:37;21.90;73.10
54485;DHT22;45006;56.958;24.166;2023-04-29T14:25:04;22.00;73.20
54485;DHT22;45006;56.958;24.166;2023-04-29T14:27:31;21.90;73.20
54485;DHT22;45006;56.958;24.166;2023-04-29T14:30:01;21.90;73.20
54485;DHT22;45006;56.958;24.166;2023-04-29T14:32:28;22.00;70.90
54485;DHT22;45006;56.958;24.166;2023-04-29T14:34:55;22.00;71.30
54485;DHT22;45006;56.958;24.166;2023-04-29T14:37:22;22.00;71.60
54485;DHT22;45006;56.958;24.166;2023-04-29T14:39:50;22.00;71.70
54485;DHT22;45006;56.958;24.166;2023-04-29T14:42:17;21.90;71.60
54485;DHT22;45006;56.958;24.166;2023-04-29T14:44:44;22.00;71.80
54485;DHT22;45006;56.958;24.166;2023-04-29T14:47:11;21.90;71.90
54485;DHT22;45006;56.958;24.166;2023-04-29T14:49:38;21.90;72.00
54485;DHT22;45006;56.958;24.166;2023-04-29T14:52:05;21.90;72.10
54485;DHT22;45006;56.958;24.166;2023-04-29T14:54:32;21.90;72.30
54485;DHT22;45006;56.958;24.166;2023-04-29T14:57:00;21.90;72.30
54485;DHT22;45006;56.958;24.166;2023-04-29T14:59:27;21.90;72.50
54485;DHT22;45006;56.958;24.166;2023-04-29T15:01:56;21.90;72.70
54485;DHT22;45006;56.958;24.166;2023-04-29T15:04:23;21.90;72.70
54485;DHT22;45006;56.958;24.166;2023-04-29T15:06:50;21.80;72.70
54485;DHT22;45006;56.958;24.166;2023-04-29T15:09:19;21.90;72.90
54485;DHT22;45006;56.958;24.166;2023-04-29T15:11:45;21.80;72.90
54485;DHT22;45006;56.958;24.166;2023-04-29T15:14:12;21.80;72.90
54485;DHT22;45006;56.958;24.166;2023-04-29T15:16:39;21.80;73.00
54485;DHT22;45006;56.958;24.166;2023-04-29T15:19:08;21.90;73.20
54485;DHT22;45006;56.958;24.166;2023-04-29T15:21:35;21.90;73.20
54485;DHT22;45006;56.958;24.166;2023-04-29T15:24:01;21.80;73.20
54485;DHT22;45006;56.958;24.166;2023-04-29T15:26:29;21.80;73.30
54485;DHT22;45006;56.958;24.166;2023-04-29T15:28:56;21.80;73.30
54485;DHT22;45006;56.958;24.166;2023-04-29T15:31:25;21.80;73.40
54485;DHT22;45006;56.958;24.166;2023-04-29T15:33:56;21.80;72.40
54485;DHT22;45006;56.958;24.166;2023-04-29T15:36:27;21.90;71.80
54485;DHT22;45006;56.958;24.166;2023-04-29T15:38:55;21.90;72.00
54485;DHT22;45006;56.958;24.166;2023-04-29T15:41:23;21.90;72.00
54485;DHT22;45006;56.958;24.166;2023-04-29T15:43:55;21.80;71.90
54485;DHT22;45006;56.958;24.166;2023-04-29T15:46:22;21.90;72.00
54485;DHT22;45006;56.958;24.166;2023-04-29T15:48:50;21.80;72.30
54485;DHT22;45006;56.958;24.166;2023-04-29T15:51:17;21.80;72.30
54485;DHT22;45006;56.958;24.166;2023-04-29T15:53:45;21.80;72.50
54485;DHT22;45006;56.958;24.166;2023-04-29T15:56:13;21.80;72.60
54485;DHT22;45006;56.958;24.166;2023-04-29T15:58:40;21.80;72.60
54485;DHT22;45006;56.958;24.166;2023-04-29T16:01:08;21.80;72.80